Terminal Aerodrome Forecast
Issued by NWS Missoula, MT

Home | Current Version | Previous Version | Text Only | Print | Product List | Glossary On
Versions: 1 2 3 4 5 6 7 8 9 10 11 12 13 14 15 16 17 18
000
FTUS45 KMSO 270231 AAB
TAFMSO
TAF AMD
KMSO 270231Z 2703/2724 30012G22KT P6SM -SHRA BKN080 OVC150
     FM270400 VRB06KT P6SM BKN050 BKN080
     FM272000 30008KT P6SM VCSH BKN060=

USA.gov is the U.S. government's official web portal to all federal, state and local government web resources and services.